Map

Track Data

SID SEASON NUMBER BASIN SUBBASIN NAME ISO_TIME NATURE LAT LON WMO_WIND WMO_PRES WMO_AGENCY TRACK_TYPE DIST2LAND LANDFALL IFLAG USA_AGENCY USA_ATCF_ID USA_LAT USA_LON USA_RECORD USA_STATUS USA_WIND USA_PRES USA_SSHS USA_R34_NE USA_R34_SE USA_R34_SW USA_R34_NW USA_R50_NE USA_R50_SE USA_R50_SW USA_R50_NW USA_R64_NE USA_R64_SE USA_R64_SW USA_R64_NW USA_POCI USA_ROCI USA_RMW USA_EYE TOKYO_LAT TOKYO_LON TOKYO_GRADE TOKYO_WIND TOKYO_PRES TOKYO_R50_DIR TOKYO_R50_LONG TOKYO_R50_SHORT TOKYO_R30_DIR TOKYO_R30_LONG TOKYO_R30_SHORT TOKYO_LAND CMA_LAT CMA_LON CMA_CAT CMA_WIND CMA_PRES HKO_LAT HKO_LON HKO_CAT HKO_WIND HKO_PRES NEWDELHI_LAT NEWDELHI_LON NEWDELHI_GRADE NEWDELHI_WIND NEWDELHI_PRES NEWDELHI_CI NEWDELHI_DP NEWDELHI_POCI REUNION_LAT REUNION_LON REUNION_TYPE REUNION_WIND REUNION_PRES REUNION_TNUM REUNION_CI REUNION_RMW REUNION_R34_NE REUNION_R34_SE REUNION_R34_SW REUNION_R34_NW REUNION_R50_NE REUNION_R50_SE REUNION_R50_SW REUNION_R50_NW REUNION_R64_NE REUNION_R64_SE REUNION_R64_SW REUNION_R64_NW BOM_LAT BOM_LON BOM_TYPE BOM_WIND BOM_PRES BOM_TNUM BOM_CI BOM_RMW BOM_R34_NE BOM_R34_SE BOM_R34_SW BOM_R34_NW BOM_R50_NE BOM_R50_SE BOM_R50_SW BOM_R50_NW BOM_R64_NE BOM_R64_SE BOM_R64_SW BOM_R64_NW BOM_ROCI BOM_POCI BOM_EYE BOM_POS_METHOD BOM_PRES_METHOD NADI_LAT NADI_LON NADI_CAT NADI_WIND NADI_PRES WELLINGTON_LAT WELLINGTON_LON WELLINGTON_WIND WELLINGTON_PRES DS824_LAT DS824_LON DS824_STAGE DS824_WIND DS824_PRES TD9636_LAT TD9636_LON TD9636_STAGE TD9636_WIND TD9636_PRES TD9635_LAT TD9635_LON TD9635_WIND TD9635_PRES TD9635_ROCI NEUMANN_LAT NEUMANN_LON NEUMANN_CLASS NEUMANN_WIND NEUMANN_PRES MLC_LAT MLC_LON MLC_CLASS MLC_WIND MLC_PRES USA_GUST BOM_GUST BOM_GUST_PER REUNION_GUST REUNION_GUST_PER USA_SEAHGT USA_SEARAD_NE USA_SEARAD_SE USA_SEARAD_SW USA_SEARAD_NW STORM_SPEED STORM_DIR
1968206N11259 1968 47 EP MM ESTELLE 1968-07-23 12:00:00 TS 11.0000 -101.000 25 hurdat_epa main 647 647 O________OO___ hurdat_epa EP051968 11.0000 -101.000 TD 25 -1 11.0000 -101.000 TC 25 11.0000 -101.000 1 5 282
1968206N11259 1968 47 EP MM ESTELLE 1968-07-23 15:00:00 TS 11.0501 -101.246 main 646 646 P________PP___ EP051968 11.0500 -101.245 TD 25 -1 11.0500 -101.245 TC 25 11.0503 -101.251 1 5 281
1968206N11259 1968 47 EP MM ESTELLE 1968-07-23 18:00:00 TS 11.1001 -101.502 25 hurdat_epa main 656 656 O________OP___ hurdat_epa EP051968 11.1000 -101.500 TD 25 -1 11.1000 -101.500 TC 25 11.1004 -101.512 1 5 281
1968206N11259 1968 47 EP MM ESTELLE 1968-07-23 21:00:00 TS 11.1500 -101.780 main 656 656 P________PP___ EP051968 11.1499 -101.778 TD 25 -1 11.1499 -101.778 TC 25 11.1503 -101.792 1 6 280
1968206N11259 1968 47 EP MM ESTELLE 1968-07-24 00:00:00 TS 11.2000 -102.100 25 hurdat_epa main 668 668 O________OO___ hurdat_epa EP051968 11.2000 -102.100 TD 25 -1 11.2000 -102.100 TC 25 11.2000 -102.100 2 7 278
1968206N11259 1968 47 EP MM ESTELLE 1968-07-24 03:00:00 TS 11.2498 -102.465 main 685 675 P________PP___ EP051968 11.2499 -102.470 TD 25 -1 11.2499 -102.470 TC 25 11.2494 -102.447 2 8 277
1968206N11259 1968 47 EP MM ESTELLE 1968-07-24 06:00:00 TS 11.2998 -102.890 25 hurdat_epa main 696 696 O________OP___ hurdat_epa EP051968 11.3000 -102.900 TD 25 -1 11.3000 -102.900 TC 25 11.2990 -102.850 2 9 277
1968206N11259 1968 47 EP MM ESTELLE 1968-07-24 09:00:00 TS 11.3496 -103.344 main 712 705 P________PP___ EP051968 11.3498 -103.348 TD 35 0 11.3498 -103.348 TC 35 11.3491 -103.328 2 10 276
1968206N11259 1968 47 EP MM ESTELLE 1968-07-24 12:00:00 TS 11.4000 -103.900 45 hurdat_epa main 726 726 O________OO___ hurdat_epa EP051968 11.4000 -103.900 TS 45 0 11.4000 -103.900 TC 45 11.4000 -103.900 2 12 275
1968206N11259 1968 47 EP MM ESTELLE 1968-07-24 15:00:00 TS 11.4510 -104.608 main 750 750 P________PP___ EP051968 11.4500 -104.605 TS 45 0 11.4500 -104.605 TC 45 11.4551 -104.618 2 15 274
1968206N11259 1968 47 EP MM ESTELLE 1968-07-24 18:00:00 TS 11.5018 -105.404 45 hurdat_epa main 786 786 O________OP___ hurdat_epa EP051968 11.5000 -105.400 TS 45 0 11.5000 -105.400 TC 45 11.5090 -105.420 2 16 274
1968206N11259 1968 47 EP MM ESTELLE 1968-07-24 21:00:00 TS 11.5517 -106.231 main 804 804 P________PP___ EP051968 11.5501 -106.230 TS 45 0 11.5501 -106.230 TC 45 11.5582 -106.237 2 16 274
1968206N11259 1968 47 EP MM ESTELLE 1968-07-25 00:00:00 TS 11.6000 -107.000 45 hurdat_epa main 838 838 O________OO___ hurdat_epa EP051968 11.6000 -107.000 TS 45 0 11.6000 -107.000 TC 45 11.6000 -107.000 2 13 274
1968206N11259 1968 47 EP MM ESTELLE 1968-07-25 03:00:00 TS 11.6503 -107.593 main 860 860 P________PP___ EP051968 11.6571 -107.587 TS 45 0 11.6571 -107.587 TC 45 11.6230 -107.615 2 11 275
1968206N11259 1968 47 EP MM ESTELLE 1968-07-25 06:00:00 TS 11.6882 -108.114 45 hurdat_epa main 888 888 O________OP___ hurdat_epa EP051968 11.7000 -108.100 TS 45 0 11.7000 -108.100 TC 45 11.6412 -108.168 2 10 272
1968206N11259 1968 47 EP MM ESTELLE 1968-07-25 09:00:00 TS 11.6927 -108.657 main 926 926 P________PP___ EP051968 11.6999 -108.650 TS 45 0 11.6999 -108.650 TC 45 11.6638 -108.687 2 11 271
1968206N11259 1968 47 EP MM ESTELLE 1968-07-25 12:00:00 TS 11.7000 -109.200 45 hurdat_epa main 959 959 O________OO___ hurdat_epa EP051968 11.7000 -109.200 TS 45 0 11.7000 -109.200 TC 45 11.7000 -109.200 6 11 273
1968206N11259 1968 47 EP MM ESTELLE 1968-07-25 15:00:00 TS 11.7498 -109.755 main 995 986 P________PP___ EP051968 11.7349 -109.750 TS 35 0 11.7349 -109.750 TC 35 11.8094 -109.774 6 11 277
1968206N11259 1968 47 EP MM ESTELLE 1968-07-25 18:00:00 TS 11.8250 -110.309 25 hurdat_epa main 1016 1013 O________OP___ hurdat_epa EP051968 11.8000 -110.300 TD 25 -1 11.8000 -110.300 TC 25 11.9250 -110.344 6 11 281
1968206N11259 1968 47 EP MM ESTELLE 1968-07-25 21:00:00 TS 11.9566 -110.876 main 1037 1037 P________PP___ EP051968 11.9450 -110.872 TD 25 -1 11.9450 -110.872 TC 25 12.0032 -110.892 6 11 279
1968206N11259 1968 47 EP MM ESTELLE 1968-07-26 00:00:00 TS 12.0000 -111.400 25 hurdat_epa main 1071 1071 O________OO___ hurdat_epa EP051968 12.0000 -111.400 TD 25 -1 12.0000 -111.400 TC 25 12.0000 -111.400 6 9 260
1968206N11259 1968 47 EP MM ESTELLE 1968-07-26 03:00:00 TS 11.7948 -111.813 main 1117 1117 P________PP___ EP051968 11.7948 -111.823 TD 25 -1 11.7948 -111.823 TC 25 11.7949 -111.775 6 9 237
1968206N11259 1968 47 EP MM ESTELLE 1968-07-26 06:00:00 TS 11.5036 -112.184 25 hurdat_epa main 1171 1171 O________OP___ hurdat_epa EP051968 11.5000 -112.200 TD 25 -1 11.5000 -112.200 TC 25 11.5179 -112.119 6 9 232
1968206N11259 1968 47 EP MM ESTELLE 1968-07-26 09:00:00 TS 11.2431 -112.533 main 1218 1218 P________PP___ EP051968 11.2396 -112.540 TD 25 -1 11.2396 -112.540 TC 25 11.2572 -112.504 6 9 243
1968206N11259 1968 47 EP MM ESTELLE 1968-07-26 12:00:00 TS 11.1000 -113.000 25 hurdat_epa main 1263 1263 O________OO___ hurdat_epa EP051968 11.1000 -113.000 TD 25 -1 11.1000 -113.000 TC 25 11.1000 -113.000 6 12 267
1968206N11259 1968 47 EP MM ESTELLE 1968-07-26 15:00:00 TS 11.1843 -113.729 main 1308 1308 P________PP___ EP051968 11.1901 -113.732 TD 25 -1 11.1901 -113.732 TC 25 11.1609 -113.714 6 16 280
1968206N11259 1968 47 EP MM ESTELLE 1968-07-26 18:00:00 TS 11.3862 -114.589 25 hurdat_epa main 1361 1361 O________OP___ hurdat_epa EP051968 11.4000 -114.600 TD 25 -1 11.4000 -114.600 TC 25 11.3312 -114.544 6 17 284
1968206N11259 1968 47 EP MM ESTELLE 1968-07-26 21:00:00 TS 11.5921 -115.451 main 1392 1391 P________PP___ EP051968 11.5999 -115.457 TD 25 -1 11.5999 -115.457 TC 25 11.5608 -115.427 6 17 284
1968206N11259 1968 47 EP MM ESTELLE 1968-07-27 00:00:00 TS 11.8000 -116.300 25 hurdat_epa main 1409 1409 O________OO___ hurdat_epa EP051968 11.8000 -116.300 TD 25 -1 11.8000 -116.300 TC 25 11.8000 -116.300 6 16 283
1968206N11259 1968 47 EP MM ESTELLE 1968-07-27 03:00:00 TS 11.9529 -117.063 main 1432 1432 P________PP___ EP051968 11.9497 -117.065 TD 25 -1 11.9497 -117.065 TC 25 11.9656 -117.052 6 15 282
1968206N11259 1968 47 EP MM ESTELLE 1968-07-27 06:00:00 TS 12.1066 -117.797 25 hurdat_epa main 1463 1463 O________OP___ hurdat_epa EP051968 12.1000 -117.800 TD 25 -1 12.1000 -117.800 TC 25 12.1332 -117.786 6 15 283
1968206N11259 1968 47 EP MM ESTELLE 1968-07-27 09:00:00 TS 12.2955 -118.528 main 1488 1488 P________PP___ EP051968 12.2921 -118.528 TD 25 -1 12.2921 -118.528 TC 25 12.3093 -118.527 6 15 285
1968206N11259 1968 47 EP MM ESTELLE 1968-07-27 12:00:00 TS 12.5000 -119.300 25 hurdat_epa main 1523 1523 O________OO___ hurdat_epa EP051968 12.5000 -119.300 TD 25 -1 12.5000 -119.300 TC 25 12.5000 -119.300 6 17 284
1968206N11259 1968 47 EP MM ESTELLE 1968-07-27 15:00:00 TS 12.6910 -120.167 main 1569 1569 P________PP___ EP051968 12.6925 -120.185 TD 25 -1 12.6925 -120.185 TC 25 12.6849 -120.096 6 18 283
1968206N11259 1968 47 EP MM ESTELLE 1968-07-27 18:00:00 TS 12.8976 -121.067 25 hurdat_epa main 1620 1620 O________OP___ hurdat_epa EP051968 12.9000 -121.100 TD 25 -1 12.9000 -121.100 TC 25 12.8878 -120.933 6 17 284
1968206N11259 1968 47 EP MM ESTELLE 1968-07-27 21:00:00 TS 13.1197 -121.896 main 1655 1653 P________PP___ EP051968 13.1192 -121.913 TD 25 -1 13.1192 -121.913 TC 25 13.1218 -121.828 6 18 287
1968206N11259 1968 47 EP MM ESTELLE 1968-07-28 00:00:00 TS 13.4000 -122.800 25 hurdat_epa main 1690 1690 O________OO___ hurdat_epa EP051968 13.4000 -122.800 TD 25 -1 13.4000 -122.800 TC 25 13.4000 -122.800 6 21 289
1968206N11259 1968 47 EP MM ESTELLE 1968-07-28 03:00:00 TS 13.7829 -123.911 main 1736 1736 P________PP___ EP051968 13.7850 -123.905 TD 25 -1 13.7850 -123.905 TC 25 13.7745 -123.937 6 24 290
1968206N11259 1968 47 EP MM ESTELLE 1968-07-28 06:00:00 TS 14.1966 -125.108 25 hurdat_epa main 1796 1796 O________OP___ hurdat_epa EP051968 14.2000 -125.100 TD 25 -1 14.2000 -125.100 TC 25 14.1832 -125.141 6 25 289
1968206N11259 1968 47 EP MM ESTELLE 1968-07-28 09:00:00 TS 14.5792 -126.319 main 1863 1863 P________PP___ EP051968 14.5803 -126.317 TD 25 -1 14.5803 -126.317 TC 25 14.5748 -126.325 6 23 288
1968206N11259 1968 47 EP MM ESTELLE 1968-07-28 12:00:00 TS 14.9000 -127.400 25 hurdat_epa main 1920 1920 O________OO___ hurdat_epa EP051968 14.9000 -127.400 TD 25 -1 14.9000 -127.400 TC 25 14.9000 -127.400 6 19 287
1968206N11259 1968 47 EP MM ESTELLE 1968-07-28 15:00:00 TS 15.1398 -128.193 main 1959 1951 P________PP___ EP051968 15.1439 -128.160 TD 25 -1 15.1439 -128.160 TC 25 15.1235 -128.325 6 15 286
1968206N11259 1968 47 EP MM ESTELLE 1968-07-28 18:00:00 TS 15.2951 -128.864 25 hurdat_epa main 1993 1993 O________OP___ hurdat_epa EP051968 15.3000 -128.800 TD 25 -1 15.3000 -128.800 TC 25 15.2755 -129.121 6 14 280
1968206N11259 1968 47 EP MM ESTELLE 1968-07-28 21:00:00 TS 15.3833 -129.650 main 2046 2046 P________PP___ EP051968 15.3879 -129.618 TD 25 -1 15.3879 -129.618 TC 25 15.3649 -129.781 6 14 274
1968206N11259 1968 47 EP MM ESTELLE 1968-07-29 00:00:00 TS 15.4000 -130.300 25 hurdat_epa main 2092 2092 O________OO___ hurdat_epa EP051968 15.4000 -130.300 TD 25 -1 15.4000 -130.300 TC 25 15.4000 -130.300 6 10 269
1968206N11259 1968 47 EP MM ESTELLE 1968-07-29 03:00:00 TS 15.3714 -130.636 main 2115 2115 P________PP___ EP051968 15.3645 -130.625 TD 25 -1 15.3645 -130.625 TC 25 15.3988 -130.679 6 5 260
1968206N11259 1968 47 EP MM ESTELLE 1968-07-29 06:00:00 TS 15.3101 -130.826 25 hurdat_epa main 2138 2138 O________OP___ hurdat_epa EP051968 15.3000 -130.800 TD 25 -1 15.3000 -130.800 TC 25 15.3507 -130.928 6 4 254
1968206N11259 1968 47 EP MM ESTELLE 1968-07-29 09:00:00 TS 15.2554 -131.057 main 2162 2162 P________PP___ EP051968 15.2499 -131.042 TD 25 -1 15.2499 -131.042 TC 25 15.2773 -131.113 6 5 256
1968206N11259 1968 47 EP MM ESTELLE 1968-07-29 12:00:00 TS 15.2000 -131.300 25 hurdat_epa main 2185 2185 O________OO___ hurdat_epa EP051968 15.2000 -131.300 TD 25 -1 15.2000 -131.300 TC 25 15.2000 -131.300 6 5 258
1968206N11259 1968 47 EP MM ESTELLE 1968-07-29 15:00:00 TS 15.1500 -131.588 main 2217 2217 P________PP___ EP051968 15.1500 -131.592 TD 25 -1 15.1500 -131.592 TC 25 15.1498 -131.569 6 6 260
1968206N11259 1968 47 EP MM ESTELLE 1968-07-29 18:00:00 TS 15.0999 -131.891 25 hurdat_epa main 2241 2241 O________OP___ hurdat_epa EP051968 15.1000 -131.900 TD 25 -1 15.1000 -131.900 TC 25 15.0997 -131.855 6 6 260
1968206N11259 1968 47 EP MM ESTELLE 1968-07-29 21:00:00 TS 15.0499 -132.181 main 2272 2272 P________PP___ EP051968 15.0499 -132.185 TD 25 -1 15.0499 -132.185 TC 25 15.0497 -132.163 6 6 260
1968206N11259 1968 47 EP MM ESTELLE 1968-07-30 00:00:00 TS 15.0000 -132.500 25 hurdat_epa main 2296 2296 O________OO___ hurdat_epa EP051968 15.0000 -132.500 TD 25 -1 15.0000 -132.500 TC 25 15.0000 -132.500 6 7 261
1968206N11259 1968 47 EP MM ESTELLE 1968-07-30 03:00:00 TS 14.9474 -132.874 main 2336 2336 P________PP___ EP051968 14.9500 -132.885 TD 25 -1 14.9500 -132.885 TC 25 14.9372 -132.831 6 8 262
1968206N11259 1968 47 EP MM ESTELLE 1968-07-30 06:00:00 TS 14.8953 -133.279 25 hurdat_epa main 2339 2308 O________OP___ hurdat_epa EP051968 14.9000 -133.300 TD 25 -1 14.9000 -133.300 TC 25 14.8765 -133.195 6 8 262
1968206N11259 1968 47 EP MM ESTELLE 1968-07-30 09:00:00 TS 14.8393 -133.652 main 2301 2260 P________PP___ EP051968 14.8422 -133.663 TD 25 -1 14.8422 -133.663 TC 25 14.8276 -133.612 6 8 263
1968206N11259 1968 47 EP MM ESTELLE 1968-07-30 12:00:00 TS 14.8000 -134.100 25 hurdat_epa main 2260 2198 O________OO___ hurdat_epa EP051968 14.8000 -134.100 TD 25 -1 14.8000 -134.100 TC 25 14.8000 -134.100 6 10 267
1968206N11259 1968 47 EP MM ESTELLE 1968-07-30 15:00:00 TS 14.7888 -134.703 main 2198 2136 P________PP___ EP051968 14.7851 -134.713 TD 25 -1 14.7851 -134.713 TC 25 14.8035 -134.666 6 12 270
1968206N11259 1968 47 EP MM ESTELLE 1968-07-30 18:00:00 TS 14.8055 -135.380 25 hurdat_epa main 2126 2064 O________OP___ hurdat_epa EP051968 14.8000 -135.400 TD 25 -1 14.8000 -135.400 TC 25 14.8275 -135.302 6 13 273
1968206N11259 1968 47 EP MM ESTELLE 1968-07-30 21:00:00 TS 14.8463 -136.032 main 2064 1989 P________PP___ EP051968 14.8423 -136.042 TD 25 -1 14.8423 -136.042 TC 25 14.8627 -135.988 6 13 274
1968206N11259 1968 47 EP MM ESTELLE 1968-07-31 00:00:00 TS 14.9000 -136.700 25 hurdat_epa main 1989 1917 O________OO___ hurdat_epa EP051968 14.9000 -136.700 TD 25 -1 14.9000 -136.700 TC 25 14.9000 -136.700 6 13 275
1968206N11259 1968 47 EP MM ESTELLE 1968-07-31 03:00:00 TS 14.9523 -137.392 main 1914 1842 P________PP___ EP051968 14.9573 -137.385 TD 25 -1 14.9573 -137.385 TC 25 14.9323 -137.421 6 14 274
1968206N11259 1968 47 EP MM ESTELLE 1968-07-31 06:00:00 TS 14.9918 -138.109 25 hurdat_epa main 1842 1771 O________OP___ hurdat_epa EP051968 15.0000 -138.100 TD 25 -1 15.0000 -138.100 TC 25 14.9590 -138.145 6 14 272
1968206N11259 1968 47 EP MM ESTELLE 1968-07-31 09:00:00 TS 15.0047 -138.848 main 1771 1690 P________PP___ EP051968 15.0105 -138.843 TD 25 -1 15.0105 -138.843 TC 25 14.9812 -138.872 6 14 270
1968206N11259 1968 47 EP MM ESTELLE 1968-07-31 12:00:00 TS 15.0000 -139.600 25 hurdat_epa main 1690 O________OO___ hurdat_epa EP051968 15.0000 -139.600 TD 25 -1 15.0000 -139.600 TC 25 15.0000 -139.600 6 15 270

About IBTrACS Database

This database is a web-friendly format of International Best Track Archive for Climate Stewardship (IBTrACS), a global best track data archive curated by NOAA dating back to 1842.

Updated: 2021-10-08